Tompkinsville, KY

6:08 PM CST on January 26, 2015 (GMT -0600)
Bowling Green-Warren County Regional | Change Station
CLOSE
Current Station
Airport
Location: Bowling Green,
Elevation: 548 ft
Nearby Weather Stations
Active Advisory: Special Statement

Elev 548 ft 36.96 °N, 86.42 °W | Updated 8 minutes ago

Overcast
Overcast
31 °F
Feels Like 31 °F
N
0
Wind Variable Wind from North

Today
High -- | Low -- °F
--% Chance of Precip.
Yesterday
High -- | Low -- °F
Precip. -- in
6:49 AM 5:01 PM
Waxing Crescent, 48% visible
Pressure 29.97 in
Visibility 1.8 miles
Clouds Mostly Cloudy 2100 ft
Overcast 4700 ft
Dew Point 28 °F
Humidity 89%
Rainfall 0.01 in
Snow Depth Not available.
UV 0 out of 12
Pollen .10 out of 12
Air Quality Not available.
Flu Activity Not available.
SPECI KBWG 270000Z AUTO 00000KT 1 3/4SM -SN BR BKN021 OVC047 M01/M02 A2997 RMK AO2 P0001 T10061022

More Conditions Fewer Conditions

Pressure 29.97 in
Visibility 1.8 miles
Clouds Mostly Cloudy 2100 ft
Overcast 4700 ft
Dew Point 28 °F
Humidity 89%
Rainfall 0.01 in
Snow Depth Not available.
UV 0 out of 12
Pollen .10 out of 12
Air Quality Not available.
Flu Activity Not available.
SPECI KBWG 270000Z AUTO 00000KT 1 3/4SM -SN BR BKN021 OVC047 M01/M02 A2997 RMK AO2 P0001 T10061022

More Conditions Fewer Conditions

10-Day Weather Forecast

Almanac

Astronomy

Jan. 26, 2015 Rise Set
Actual Time
Civil Twilight
Nautical Twilight
Astronomical Twilight
Moon
Length of Visible Light
Length of Day
Tomorrow will be .
, % of the Moon is Illuminated

Today's Extremes

State Highs State Lows

Community

WunderPhotos

Upload Photos

1,790,412 photos uploaded!

WunderBlogs® & News

Nearby

Air Quality

  Air Quality AQ Index Pollutant
Not available.

Snow Depth

Station Depth Elevation

Earthquake Activity

City Distance Mag. Time & Date
Minimum magnitude displayed is 2.5.

Coastal Water Temperatures

Place Temperature

Nearby Weather Stations